createdAt,value
2017-12-14T00:00:49.884Z,1.50
2017-12-14T00:03:17.522Z,0.70
2017-12-14T00:05:45.175Z,1.97
2017-12-14T00:08:12.869Z,1.50
2017-12-14T00:10:40.510Z,1.37
2017-12-14T00:13:08.604Z,1.00
2017-12-14T00:15:36.219Z,1.67
2017-12-14T00:18:04.647Z,1.27
2017-12-14T00:20:32.256Z,0.90
2017-12-14T00:22:59.910Z,1.37
2017-12-14T00:25:28.343Z,1.23
2017-12-14T00:27:56.022Z,1.23
2017-12-14T00:30:23.666Z,1.10
2017-12-14T00:32:51.291Z,1.20
2017-12-14T00:35:19.719Z,1.00
2017-12-14T00:37:47.326Z,0.77
2017-12-14T00:40:15.773Z,0.80
2017-12-14T00:42:43.421Z,1.60
2017-12-14T00:45:11.081Z,1.10
2017-12-14T00:47:38.743Z,0.80
2017-12-14T00:50:06.360Z,1.20
2017-12-14T00:52:34.898Z,0.80
2017-12-14T00:55:02.553Z,0.83
2017-12-14T00:57:30.224Z,0.97
2017-12-14T00:59:57.835Z,0.90
2017-12-14T01:02:26.205Z,0.80
2017-12-14T01:04:54.607Z,0.90
2017-12-14T01:07:22.215Z,0.77
2017-12-14T01:09:49.876Z,0.70
2017-12-14T01:12:17.523Z,0.70
2017-12-14T01:14:45.139Z,1.27
2017-12-14T01:17:13.544Z,0.83
2017-12-14T01:19:41.563Z,3.03
2017-12-14T01:22:09.829Z,1.00
2017-12-14T01:24:37.484Z,0.77
2017-12-14T01:27:05.102Z,0.73
2017-12-14T01:29:32.767Z,0.87
2017-12-14T01:32:00.558Z,0.80
2017-12-14T01:34:28.179Z,0.90
2017-12-14T01:36:56.622Z,0.77
2017-12-14T01:39:24.261Z,0.93
2017-12-14T01:41:51.931Z,0.83
2017-12-14T01:44:19.605Z,0.97
2017-12-14T01:46:47.991Z,0.97
2017-12-14T01:49:15.632Z,1.03
2017-12-14T01:51:43.251Z,0.83
2017-12-14T01:54:10.963Z,1.10
2017-12-14T01:56:38.588Z,0.87
2017-12-14T01:59:06.252Z,0.70
2017-12-14T02:01:33.859Z,0.80
2017-12-14T02:04:01.483Z,1.37
2017-12-14T02:06:29.167Z,1.47
2017-12-14T02:08:56.835Z,0.70
2017-12-14T02:11:24.492Z,0.73
2017-12-14T02:13:52.121Z,1.00
2017-12-14T02:16:19.928Z,1.00
2017-12-14T02:18:47.579Z,0.80
2017-12-14T02:21:15.248Z,1.10
2017-12-14T02:23:42.887Z,1.23
2017-12-14T02:26:10.572Z,0.90
2017-12-14T02:28:38.428Z,1.00
2017-12-14T02:31:06.186Z,0.83
2017-12-14T02:33:33.850Z,1.27
2017-12-14T02:36:01.543Z,1.27
2017-12-14T02:38:29.959Z,1.23
2017-12-14T02:40:58.490Z,1.43
2017-12-14T02:43:26.106Z,1.27
2017-12-14T02:45:53.770Z,1.43
2017-12-14T02:48:21.407Z,1.37
2017-12-14T02:50:49.028Z,0.80
2017-12-14T02:53:16.906Z,1.53
2017-12-14T02:55:44.518Z,0.90
2017-12-14T02:58:12.930Z,0.70
2017-12-14T03:00:40.546Z,1.27
2017-12-14T03:03:08.943Z,0.80
2017-12-14T03:05:36.567Z,3.20
2017-12-14T03:08:05.034Z,2.90
2017-12-14T03:10:32.667Z,0.70
2017-12-14T03:13:00.346Z,0.80
2017-12-14T03:15:28.011Z,1.07
2017-12-14T03:17:55.637Z,1.47
2017-12-14T03:20:23.374Z,1.23
2017-12-14T03:22:51.776Z,0.80
2017-12-14T03:25:21.660Z,1.63
2017-12-14T03:27:49.258Z,0.73
2017-12-14T03:30:16.913Z,0.83
2017-12-14T03:32:44.555Z,1.77
2017-12-14T03:35:12.929Z,0.90
2017-12-14T03:37:40.657Z,3.40
2017-12-14T03:40:08.303Z,1.43
2017-12-14T03:42:35.992Z,4.77
2017-12-14T03:45:03.643Z,1.10
2017-12-14T03:47:31.465Z,0.70
2017-12-14T03:49:59.896Z,1.50
2017-12-14T03:52:27.655Z,5.37
2017-12-14T03:54:55.445Z,3.03
2017-12-14T03:57:23.058Z,3.43
2017-12-14T03:59:50.809Z,1.00
2017-12-14T04:02:19.250Z,4.23
2017-12-14T04:04:46.915Z,1.67
2017-12-14T04:07:14.524Z,1.80
2017-12-14T04:09:42.187Z,1.30
2017-12-14T04:12:09.832Z,1.53
2017-12-14T04:14:38.458Z,1.80
2017-12-14T04:17:06.123Z,2.50
2017-12-14T04:19:33.800Z,2.50
2017-12-14T04:22:01.444Z,3.43
2017-12-14T04:24:29.124Z,1.37
2017-12-14T04:26:56.785Z,2.40
2017-12-14T04:29:24.454Z,5.03
2017-12-14T04:31:52.123Z,2.53
2017-12-14T04:34:21.309Z,8.13
2017-12-14T04:36:49.088Z,2.13
2017-12-14T04:39:18.268Z,4.90
2017-12-14T04:41:46.144Z,8.27
2017-12-14T04:44:13.801Z,2.87
2017-12-14T04:46:41.564Z,2.70
2017-12-14T04:49:09.254Z,6.03
2017-12-14T04:51:37.662Z,4.73
2017-12-14T04:54:05.354Z,2.43
2017-12-14T04:56:33.130Z,8.23
2017-12-14T04:59:00.889Z,9.10
2017-12-14T05:01:29.087Z,3.70
2017-12-14T05:03:57.535Z,4.43
2017-12-14T05:06:25.240Z,10.37
2017-12-14T05:08:52.882Z,7.40
2017-12-14T05:11:21.046Z,4.60
2017-12-14T05:13:48.682Z,5.10
2017-12-14T05:16:16.326Z,5.93
2017-12-14T05:18:44.757Z,7.90
2017-12-14T05:21:17.175Z,10.03
2017-12-14T05:23:45.610Z,5.90
2017-12-14T05:26:13.269Z,12.00
2017-12-14T05:28:40.971Z,10.40
2017-12-14T05:31:09.408Z,3.37
2017-12-14T05:33:37.182Z,7.00
2017-12-14T05:36:04.937Z,8.30
2017-12-14T05:38:32.609Z,8.20
2017-12-14T05:41:00.311Z,6.43
2017-12-14T05:43:28.752Z,6.10
2017-12-14T05:45:56.431Z,2.90
2017-12-14T05:48:24.891Z,9.53
2017-12-14T05:50:52.578Z,15.70
2017-12-14T05:53:20.249Z,9.63
2017-12-14T05:55:47.906Z,8.97
2017-12-14T05:58:15.614Z,10.47
2017-12-14T06:00:43.270Z,6.90
2017-12-14T06:03:10.926Z,11.80
2017-12-14T06:05:38.637Z,6.40
2017-12-14T06:08:06.288Z,12.43
2017-12-14T06:10:33.968Z,6.20
2017-12-14T06:13:01.655Z,5.97
2017-12-14T06:15:29.303Z,6.60
2017-12-14T06:17:57.737Z,5.63
2017-12-14T06:20:25.396Z,4.20
2017-12-14T06:22:53.063Z,5.20
2017-12-14T06:25:20.720Z,4.00
2017-12-14T06:27:48.399Z,7.67
2017-12-14T06:30:16.064Z,8.30
2017-12-14T06:32:43.845Z,3.83
2017-12-14T06:35:14.859Z,19.70
2017-12-14T06:37:42.515Z,9.13
2017-12-14T06:40:10.213Z,5.90
2017-12-14T06:42:37.879Z,10.60
2017-12-14T06:45:05.589Z,13.27
2017-12-14T06:47:33.290Z,5.83
2017-12-14T06:50:01.360Z,8.30
2017-12-14T06:52:29.027Z,3.20
2017-12-14T06:54:56.715Z,12.83
2017-12-14T06:57:25.181Z,8.27
2017-12-14T06:59:52.944Z,14.33
2017-12-14T07:02:20.696Z,6.70
2017-12-14T07:04:48.363Z,11.60
2017-12-14T07:07:16.228Z,4.43
2017-12-14T07:09:43.889Z,5.57
2017-12-14T07:12:11.517Z,6.93
2017-12-14T07:14:39.190Z,5.10
2017-12-14T07:17:07.115Z,8.40
2017-12-14T07:19:34.794Z,7.83
2017-12-14T07:22:03.202Z,6.57
2017-12-14T07:24:30.843Z,3.40
2017-12-14T07:26:59.264Z,3.30
2017-12-14T07:29:26.906Z,5.70
2017-12-14T07:31:54.692Z,8.17
2017-12-14T07:34:22.335Z,4.80
2017-12-14T07:36:50.005Z,7.30
2017-12-14T07:39:17.649Z,3.90
2017-12-14T07:41:45.547Z,6.73
2017-12-14T07:44:25.091Z,5.27
2017-12-14T07:47:04.632Z,3.33
2017-12-14T07:49:32.393Z,6.20
2017-12-14T07:52:00.155Z,9.73
2017-12-14T07:54:28.037Z,8.33
2017-12-14T07:56:55.711Z,5.77
2017-12-14T07:59:23.513Z,7.03
2017-12-14T08:01:52.070Z,3.70
2017-12-14T08:04:19.790Z,13.90
2017-12-14T08:06:47.491Z,10.00
2017-12-14T08:09:15.346Z,16.33
2017-12-14T08:11:43.019Z,11.80
2017-12-14T08:14:11.434Z,10.90
2017-12-14T08:16:39.956Z,9.33
2017-12-14T08:19:07.576Z,5.97
2017-12-14T08:24:09.830Z,13.00
2017-12-14T08:26:37.580Z,13.17
2017-12-14T08:29:05.222Z,8.00
2017-12-14T08:31:32.875Z,4.00
2017-12-14T08:34:00.547Z,4.80
2017-12-14T08:36:28.219Z,22.57
2017-12-14T08:38:55.879Z,7.27
2017-12-14T08:41:23.549Z,5.67
2017-12-14T08:43:51.219Z,9.30
2017-12-14T08:46:18.872Z,8.93
2017-12-14T08:48:46.558Z,7.00
2017-12-14T08:51:14.237Z,8.30
2017-12-14T08:53:43.507Z,10.97
2017-12-14T08:56:11.195Z,10.90
2017-12-14T08:58:39.602Z,10.20
2017-12-14T09:01:07.246Z,8.93
2017-12-14T09:03:35.702Z,10.83
2017-12-14T09:06:04.895Z,14.63
2017-12-14T09:08:32.551Z,12.73
2017-12-14T09:11:00.236Z,8.60
2017-12-14T09:13:27.889Z,10.80
2017-12-14T09:15:55.545Z,14.57
2017-12-14T09:18:23.303Z,14.03
2017-12-14T09:20:51.136Z,10.27
2017-12-14T09:23:19.518Z,8.20
2017-12-14T09:25:47.190Z,4.90
2017-12-14T09:28:14.967Z,13.50
2017-12-14T09:30:46.868Z,6.30
2017-12-14T09:33:21.036Z,12.87
2017-12-14T09:35:49.551Z,2.83
2017-12-14T09:38:17.292Z,7.80
2017-12-14T09:40:44.955Z,11.77
2017-12-14T09:43:12.640Z,5.83
2017-12-14T09:45:40.377Z,3.67
2017-12-14T09:48:08.054Z,1.27
2017-12-14T09:50:35.702Z,2.87
2017-12-14T09:53:03.462Z,2.93
2017-12-14T09:55:31.083Z,5.30
2017-12-14T10:00:27.282Z,2.20
2017-12-14T10:02:55.047Z,2.40
2017-12-14T10:05:22.851Z,3.93
2017-12-14T10:07:50.528Z,1.33
2017-12-14T10:10:18.177Z,2.50
2017-12-14T10:12:46.595Z,2.83
2017-12-14T10:15:14.290Z,2.30
2017-12-14T10:17:41.928Z,2.83
2017-12-14T10:20:09.600Z,1.43
2017-12-14T10:22:37.256Z,3.70
2017-12-14T10:25:05.021Z,3.37
2017-12-14T10:27:32.670Z,2.20
2017-12-14T10:30:00.403Z,1.60
2017-12-14T10:32:28.825Z,3.87
2017-12-14T10:34:56.470Z,2.90
2017-12-14T10:37:24.187Z,1.70
2017-12-14T10:39:51.872Z,3.07
2017-12-14T10:42:19.595Z,2.30
2017-12-14T10:44:47.247Z,2.63
2017-12-14T10:47:14.943Z,2.10
2017-12-14T10:49:42.571Z,2.90
2017-12-14T10:52:10.350Z,2.40
2017-12-14T10:54:37.988Z,3.63
2017-12-14T10:57:05.760Z,2.50
2017-12-14T10:59:33.435Z,1.63
2017-12-14T11:02:01.097Z,2.57
2017-12-14T11:04:28.834Z,7.77
2017-12-14T11:06:56.599Z,2.10
2017-12-14T11:09:24.256Z,2.53
2017-12-14T11:11:51.930Z,2.23
2017-12-14T11:14:19.721Z,2.33
2017-12-14T11:16:47.399Z,1.40
2017-12-14T11:19:15.807Z,2.03
2017-12-14T11:21:43.514Z,2.00
2017-12-14T11:24:11.211Z,1.73
2017-12-14T11:26:39.646Z,1.90
2017-12-14T11:29:07.318Z,1.93
2017-12-14T11:31:34.964Z,2.27
2017-12-14T11:34:02.671Z,1.90
2017-12-14T11:36:30.416Z,1.77
2017-12-14T11:38:58.080Z,1.17
2017-12-14T11:41:25.767Z,4.30
2017-12-14T11:43:54.189Z,3.53
2017-12-14T11:46:21.871Z,1.77
2017-12-14T11:48:49.521Z,3.27
2017-12-14T11:51:17.199Z,1.73
2017-12-14T11:53:44.825Z,2.60
2017-12-14T11:56:12.506Z,1.80
2017-12-14T11:58:40.114Z,2.23
2017-12-14T12:01:07.816Z,3.00
2017-12-14T12:03:35.471Z,1.60
2017-12-14T12:06:03.187Z,2.60
2017-12-14T12:08:31.041Z,3.40
2017-12-14T12:10:58.707Z,3.27
2017-12-14T12:13:26.371Z,3.43
2017-12-14T12:15:54.043Z,8.03
2017-12-14T12:18:21.705Z,3.63
2017-12-14T12:20:49.497Z,5.70
2017-12-14T12:23:17.916Z,9.30
2017-12-14T12:25:45.576Z,6.43
2017-12-14T12:28:14.182Z,3.77
2017-12-14T12:30:41.859Z,4.40
2017-12-14T12:33:09.623Z,3.30
2017-12-14T12:35:37.272Z,5.00
2017-12-14T12:38:04.944Z,5.27
2017-12-14T12:40:32.606Z,7.77
2017-12-14T12:43:00.308Z,7.03
2017-12-14T12:45:28.755Z,10.60
2017-12-14T12:47:56.431Z,6.03
2017-12-14T12:50:24.293Z,4.97
2017-12-14T12:52:51.948Z,3.77
2017-12-14T12:55:19.612Z,2.77
2017-12-14T12:57:47.269Z,4.23
2017-12-14T13:00:15.067Z,10.63
2017-12-14T13:02:43.616Z,3.00
2017-12-14T13:05:11.309Z,8.40
2017-12-14T13:07:39.141Z,6.30
2017-12-14T13:10:08.463Z,6.80
2017-12-14T13:12:37.043Z,7.57
2017-12-14T13:15:06.195Z,10.50
2017-12-14T13:17:33.857Z,5.93
2017-12-14T13:20:01.488Z,3.87
2017-12-14T13:22:30.028Z,5.90
2017-12-14T13:24:57.727Z,5.10
2017-12-14T13:27:26.174Z,4.47
2017-12-14T13:29:53.930Z,4.20
2017-12-14T13:32:21.579Z,8.30
2017-12-14T13:34:49.371Z,2.90
2017-12-14T13:37:17.142Z,6.90
2017-12-14T13:39:44.840Z,3.40
2017-12-14T13:42:13.267Z,3.20
2017-12-14T13:44:40.950Z,3.40
2017-12-14T13:47:08.628Z,5.57
2017-12-14T13:49:36.368Z,4.20
2017-12-14T13:52:04.120Z,3.20
2017-12-14T13:54:31.887Z,4.60
2017-12-14T13:56:59.558Z,4.10
2017-12-14T13:59:27.206Z,2.97
2017-12-14T14:01:54.890Z,3.17
2017-12-14T14:04:22.511Z,4.90
2017-12-14T14:06:50.204Z,3.43
2017-12-14T14:09:18.075Z,4.13
2017-12-14T14:11:45.738Z,2.50
2017-12-14T14:14:13.730Z,4.83
2017-12-14T14:16:41.405Z,2.93
2017-12-14T14:19:09.869Z,6.80
2017-12-14T14:21:37.525Z,6.03
2017-12-14T14:24:06.684Z,4.73
2017-12-14T14:26:34.364Z,1.70
2017-12-14T14:29:02.014Z,4.53
2017-12-14T14:31:29.735Z,3.50
2017-12-14T14:33:58.156Z,3.80
2017-12-14T14:36:25.844Z,3.57
2017-12-14T14:38:53.468Z,3.10
2017-12-14T14:41:21.092Z,2.40
2017-12-14T14:43:48.791Z,3.20
2017-12-14T14:46:16.473Z,2.90
2017-12-14T14:48:44.264Z,2.33
2017-12-14T14:51:12.362Z,2.80
2017-12-14T14:53:41.182Z,3.60
2017-12-14T14:56:08.795Z,5.70
2017-12-14T14:58:36.642Z,4.80
2017-12-14T15:01:04.250Z,3.70
2017-12-14T15:03:32.663Z,3.70
2017-12-14T15:06:00.286Z,4.50
2017-12-14T15:08:28.708Z,2.70
2017-12-14T15:10:56.376Z,5.90
2017-12-14T15:13:23.997Z,3.90
2017-12-14T15:15:52.458Z,5.23
2017-12-14T15:18:20.116Z,4.63
2017-12-14T15:20:47.859Z,6.40
2017-12-14T15:23:15.471Z,9.53
2017-12-14T15:25:43.867Z,4.83
2017-12-14T15:28:11.513Z,10.40
2017-12-14T15:30:39.118Z,5.60
2017-12-14T15:33:06.752Z,3.13
2017-12-14T15:35:34.410Z,4.10
2017-12-14T15:38:02.045Z,6.30
2017-12-14T15:40:30.430Z,2.70
2017-12-14T15:42:58.844Z,6.17
2017-12-14T15:45:26.464Z,2.20
2017-12-14T15:50:22.493Z,4.77
2017-12-14T15:52:50.160Z,4.47
2017-12-14T15:55:17.900Z,4.80
2017-12-14T15:57:45.590Z,4.07
2017-12-14T16:00:14.031Z,2.50
2017-12-14T16:02:41.647Z,5.83
2017-12-14T16:05:10.078Z,5.33
2017-12-14T16:07:37.734Z,5.17
2017-12-14T16:10:05.429Z,4.87
2017-12-14T16:12:33.058Z,5.00
2017-12-14T16:15:00.739Z,4.97
2017-12-14T16:17:28.350Z,2.77
2017-12-14T16:19:56.006Z,4.93
2017-12-14T16:22:23.634Z,7.93
2017-12-14T16:24:52.034Z,5.93
2017-12-14T16:27:20.610Z,6.70
2017-12-14T16:29:48.226Z,4.33
2017-12-14T16:32:15.854Z,3.33
2017-12-14T16:34:44.349Z,5.47
2017-12-14T16:37:12.705Z,7.83
2017-12-14T16:39:41.150Z,6.43
2017-12-14T16:42:08.807Z,6.83
2017-12-14T16:44:36.481Z,9.77
2017-12-14T16:47:04.131Z,5.07
2017-12-14T16:49:31.793Z,7.57
2017-12-14T16:51:59.519Z,12.13
2017-12-14T16:54:27.321Z,7.93
2017-12-14T16:56:55.051Z,7.40
2017-12-14T16:59:22.678Z,8.90
2017-12-14T17:01:51.144Z,7.63
2017-12-14T17:04:18.894Z,7.73
2017-12-14T17:06:46.592Z,14.73
2017-12-14T17:09:15.008Z,7.77
2017-12-14T17:11:42.655Z,7.37
2017-12-14T17:14:10.573Z,8.70
2017-12-14T17:16:38.455Z,8.90
2017-12-14T17:19:06.413Z,8.60
2017-12-14T17:21:34.389Z,6.87
2017-12-14T17:24:02.458Z,9.33
2017-12-14T17:26:30.424Z,6.87
2017-12-14T17:28:58.393Z,6.13
2017-12-14T17:31:26.375Z,9.07
2017-12-14T17:33:54.000Z,12.70
2017-12-14T17:36:21.620Z,7.73
2017-12-14T17:38:50.255Z,6.30
2017-12-14T17:41:18.121Z,9.70
2017-12-14T17:43:46.092Z,6.60
2017-12-14T17:46:13.959Z,10.10
2017-12-14T17:48:42.127Z,8.17
2017-12-14T17:51:11.335Z,6.10
2017-12-14T17:53:41.488Z,9.43
2017-12-14T17:56:10.973Z,8.80
2017-12-14T17:58:40.480Z,8.37
2017-12-14T18:01:10.224Z,9.13
2017-12-14T18:03:38.158Z,7.50
2017-12-14T18:06:06.229Z,7.90
2017-12-14T18:08:34.299Z,10.93
2017-12-14T18:11:02.266Z,8.63
2017-12-14T18:13:30.219Z,8.40
2017-12-14T18:15:58.116Z,7.83
2017-12-14T18:18:27.626Z,11.40
2017-12-14T18:20:55.591Z,6.27
2017-12-14T18:23:24.983Z,9.67
2017-12-14T18:25:52.923Z,8.00
2017-12-14T18:28:20.832Z,11.87
2017-12-14T18:30:48.902Z,6.60
2017-12-14T18:33:16.862Z,10.40
2017-12-14T18:35:45.258Z,12.20
2017-12-14T18:38:14.142Z,9.37
2017-12-14T18:40:43.049Z,10.30
2017-12-14T18:43:11.914Z,10.00
2017-12-14T18:45:39.893Z,11.70
2017-12-14T18:48:08.780Z,8.90
2017-12-14T18:50:37.563Z,7.77
2017-12-14T18:53:07.443Z,8.20
2017-12-14T18:55:36.905Z,7.53
2017-12-14T18:58:06.801Z,7.27
2017-12-14T19:00:37.169Z,5.67
2017-12-14T19:03:06.116Z,7.87
2017-12-14T19:05:34.106Z,7.50
2017-12-14T19:08:02.057Z,5.87
2017-12-14T19:10:30.133Z,10.23
2017-12-14T19:12:58.100Z,9.50
2017-12-14T19:15:26.170Z,7.20
2017-12-14T19:17:54.144Z,5.53
2017-12-14T19:20:22.215Z,7.13
2017-12-14T19:22:50.191Z,9.10
2017-12-14T19:25:19.283Z,8.67
2017-12-14T19:27:47.350Z,5.30
2017-12-14T19:30:15.217Z,13.83
2017-12-14T19:32:43.198Z,6.10
2017-12-14T19:35:11.159Z,7.10
2017-12-14T19:37:39.131Z,8.10
2017-12-14T19:40:07.807Z,8.93
2017-12-14T19:42:35.989Z,12.47
2017-12-14T19:45:03.951Z,9.50
2017-12-14T19:47:32.035Z,10.13
2017-12-14T19:49:59.976Z,12.80
2017-12-14T19:52:27.961Z,8.60
2017-12-14T19:54:55.934Z,11.07
2017-12-14T19:57:41.818Z,12.53
2017-12-14T20:00:09.501Z,7.20
2017-12-14T20:02:37.952Z,11.67
2017-12-14T20:05:05.609Z,7.77
2017-12-14T20:07:33.255Z,8.07
2017-12-14T20:10:00.915Z,8.20
2017-12-14T20:12:28.587Z,7.73
2017-12-14T20:14:56.266Z,5.80
2017-12-14T20:17:23.961Z,9.77
2017-12-14T20:19:51.710Z,6.87
2017-12-14T20:22:19.391Z,9.70
2017-12-14T20:24:47.815Z,7.00
2017-12-14T20:30:09.493Z,11.23
2017-12-14T20:32:37.468Z,9.07
2017-12-14T20:35:05.436Z,8.40
2017-12-14T20:37:33.412Z,13.00
2017-12-14T20:40:01.475Z,11.50
2017-12-14T20:42:29.548Z,10.13
2017-12-14T20:44:57.523Z,10.70
2017-12-14T20:47:25.588Z,8.80
2017-12-14T20:49:53.561Z,11.60
2017-12-14T20:52:21.534Z,10.27
2017-12-14T20:54:50.017Z,12.33
2017-12-14T20:57:17.978Z,9.70
2017-12-14T20:59:46.717Z,12.10
2017-12-14T21:02:14.762Z,10.17
2017-12-14T21:04:43.424Z,12.47
2017-12-14T21:07:11.441Z,14.00
2017-12-14T21:09:39.369Z,11.60
2017-12-14T21:12:07.341Z,10.40
2017-12-14T21:14:36.132Z,8.80
2017-12-14T21:17:05.533Z,9.43
2017-12-14T21:19:33.596Z,10.63
2017-12-14T21:22:01.523Z,9.43
2017-12-14T21:24:29.543Z,20.27
2017-12-14T21:26:57.617Z,15.90
2017-12-14T21:31:59.911Z,12.33
2017-12-14T21:34:28.670Z,15.47
2017-12-14T21:36:56.522Z,20.77
2017-12-14T21:39:24.508Z,14.27
2017-12-14T21:41:52.467Z,16.93
2017-12-14T21:44:20.290Z,15.33
2017-12-14T21:46:48.062Z,14.77
2017-12-14T21:49:15.881Z,14.57
2017-12-14T21:51:43.633Z,16.70
2017-12-14T21:54:11.462Z,19.23
2017-12-14T21:56:39.308Z,18.27
2017-12-14T21:59:07.973Z,15.20
2017-12-14T22:01:35.557Z,13.27
2017-12-14T22:04:03.150Z,15.10
2017-12-14T22:06:30.772Z,12.20
2017-12-14T22:08:59.132Z,13.40
2017-12-14T22:11:26.761Z,11.57
2017-12-14T22:13:54.354Z,15.17
2017-12-14T22:16:21.989Z,18.97
2017-12-14T22:18:49.600Z,13.20
2017-12-14T22:21:17.238Z,11.53
2017-12-14T22:23:44.820Z,9.67
2017-12-14T22:26:13.176Z,12.87
2017-12-14T22:28:40.794Z,12.00
2017-12-14T22:31:08.396Z,15.60
2017-12-14T22:33:36.009Z,14.17
2017-12-14T22:36:03.665Z,20.03
2017-12-14T22:38:31.725Z,15.93
2017-12-14T22:40:59.323Z,14.10
2017-12-14T22:43:26.950Z,16.83
2017-12-14T22:45:54.600Z,14.13
2017-12-14T22:48:22.979Z,16.90
2017-12-14T22:50:50.578Z,12.67
2017-12-14T22:53:18.978Z,18.17
2017-12-14T22:55:46.628Z,17.97
2017-12-14T22:58:14.224Z,12.07
2017-12-14T23:00:42.610Z,16.53
2017-12-14T23:03:10.977Z,10.67
2017-12-14T23:05:39.336Z,12.93
2017-12-14T23:08:06.962Z,13.50
2017-12-14T23:10:34.555Z,19.87
2017-12-14T23:13:02.198Z,10.60
2017-12-14T23:15:29.834Z,11.03
2017-12-14T23:17:57.430Z,13.17
2017-12-14T23:20:25.043Z,20.27
2017-12-14T23:22:53.378Z,16.97
2017-12-14T23:25:21.769Z,13.50
2017-12-14T23:27:49.357Z,9.33
2017-12-14T23:30:17.708Z,9.40
2017-12-14T23:32:46.839Z,10.43
2017-12-14T23:35:14.452Z,9.83
2017-12-14T23:37:42.049Z,12.03
2017-12-14T23:40:09.717Z,13.60
2017-12-14T23:42:37.314Z,14.97
2017-12-14T23:45:04.909Z,12.87
2017-12-14T23:47:33.309Z,15.23
2017-12-14T23:50:00.918Z,10.13
2017-12-14T23:52:28.575Z,13.47
2017-12-14T23:54:56.160Z,11.07
2017-12-14T23:57:23.761Z,8.77
2017-12-14T23:59:52.228Z,10.50
